Time;durP1;ratioP1;P1;durP2;ratioP2;P2;SDS_P1;SDS_P2;PMS_P1;PMS_P2;Temp;Humidity;BMP_temperature;BMP_pressure;BME280_temperature;BME280_humidity;BME280_pressure;Samples;Min_cycle;Max_cycle;Signal;HPM_P1;HPM_P2
2023/01/27 00:00:27;;;;;;;0.30;0.30;;;;;;;1.94;100.00;98516.13;5110201;28;20599;-58
2023/01/27 00:02:54;;;;;;;1.13;1.03;;;;;;;1.92;100.00;98515.41;5109701;28;20212;-59
2023/01/27 00:05:22;;;;;;;0.63;0.63;;;;;;;1.94;100.00;98513.59;5109999;28;20228;-61
2023/01/27 00:07:51;;;;;;;0.40;0.40;;;;;;;1.88;100.00;98511.38;5109830;28;20205;-61
2023/01/27 00:10:19;;;;;;;0.83;0.63;;;;;;;1.94;100.00;98503.53;5109825;28;20221;-58
2023/01/27 00:15:33;;;;;;;2.43;1.03;;;;;;;1.90;100.00;98511.31;5109982;28;20224;-58
2023/01/27 00:18:00;;;;;;;0.67;0.67;;;;;;;2.00;100.00;98517.56;5111656;28;20224;-59
2023/01/27 00:26:05;;;;;;;0.40;0.40;;;;;;;2.02;100.00;98525.88;5113643;28;20200;-58
2023/01/27 00:28:32;;;;;;;0.70;0.70;;;;;;;1.98;100.00;98521.88;5113573;28;20193;-62
2023/01/27 00:30:59;;;;;;;1.43;1.33;;;;;;;1.97;100.00;98523.53;5113488;28;20201;-61
2023/01/27 00:33:26;;;;;;;0.90;0.73;;;;;;;2.01;100.00;98527.56;5113484;28;20197;-61
2023/01/27 00:36:00;;;;;;;0.83;0.83;;;;;;;1.93;100.00;98527.13;5113476;28;20201;-61
2023/01/27 00:38:30;;;;;;;0.40;0.40;;;;;;;1.99;100.00;98524.31;5113294;28;20199;-61
2023/01/27 00:41:18;;;;;;;5.20;0.73;;;;;;;1.97;100.00;98522.75;5113342;28;20201;-61
2023/01/27 00:43:45;;;;;;;0.90;0.90;;;;;;;1.89;100.00;98520.59;5113310;28;20319;-58
2023/01/27 00:46:12;;;;;;;0.43;0.43;;;;;;;1.98;100.00;98517.63;5113336;28;20201;-61
2023/01/27 00:48:39;;;;;;;1.87;0.67;;;;;;;1.93;100.00;98517.03;5113367;27;20217;-61
2023/01/27 00:51:05;;;;;;;0.70;0.70;;;;;;;1.85;100.00;98516.56;5113427;28;20209;-58
2023/01/27 00:53:34;;;;;;;0.57;0.57;;;;;;;1.94;100.00;98503.53;5112953;28;20225;-58
2023/01/27 00:56:01;;;;;;;0.40;0.40;;;;;;;2.11;100.00;98506.97;5113330;27;20197;-58
2023/01/27 00:58:29;;;;;;;0.97;0.93;;;;;;;2.09;100.00;98503.69;5112996;28;20232;-61
2023/01/27 01:00:58;;;;;;;2.50;1.20;;;;;;;2.11;100.00;98509.50;5112976;28;20205;-61
2023/01/27 01:03:25;;;;;;;1.10;1.07;;;;;;;1.94;100.00;98498.47;5112970;28;20665;-61
2023/01/27 01:05:52;;;;;;;2.00;1.03;;;;;;;1.93;100.00;98485.97;5113230;28;20219;-58
2023/01/27 01:08:19;;;;;;;0.87;0.87;;;;;;;1.93;100.00;98491.00;5112808;28;20194;-61
2023/01/27 01:10:47;;;;;;;0.30;0.30;;;;;;;1.92;100.00;98490.19;5112716;28;20201;-59
2023/01/27 01:13:14;;;;;;;0.40;0.40;;;;;;;1.96;100.00;98481.59;5112567;28;20204;-58
2023/01/27 01:15:42;;;;;;;0.53;0.53;;;;;;;1.89;100.00;98489.50;5112897;28;20287;-61
2023/01/27 01:18:10;;;;;;;2.50;0.93;;;;;;;1.94;100.00;98480.84;5112327;28;20652;-61
2023/01/27 01:20:38;;;;;;;2.33;1.83;;;;;;;1.94;100.00;98488.41;5112864;28;20251;-61
2023/01/27 01:23:05;;;;;;;0.57;0.57;;;;;;;2.11;100.00;98489.31;5112463;27;20208;-59
2023/01/27 01:25:32;;;;;;;1.90;1.03;;;;;;;2.00;100.00;98498.19;5112266;28;20217;-61
2023/01/27 01:28:00;;;;;;;1.60;1.20;;;;;;;1.94;100.00;98498.47;5111935;28;20197;-58
2023/01/27 01:30:27;;;;;;;0.87;0.87;;;;;;;1.99;100.00;98491.53;5112747;28;20232;-58
2023/01/27 01:32:55;;;;;;;1.10;1.10;;;;;;;1.98;100.00;98492.44;5112123;28;20201;-58
2023/01/27 01:35:23;;;;;;;0.50;0.50;;;;;;;1.99;100.00;98491.53;5112487;28;20217;-58
2023/01/27 01:37:50;;;;;;;0.67;0.67;;;;;;;2.02;100.00;98493.09;5111952;28;20285;-58
2023/01/27 01:40:18;;;;;;;0.20;0.20;;;;;;;1.99;100.00;98491.53;5112411;28;20221;-58
2023/01/27 01:43:02;;;;;;;0.40;0.40;;;;;;;2.01;100.00;98494.81;5111944;28;20201;-61
2023/01/27 01:45:45;;;;;;;0.93;0.83;;;;;;;2.01;100.00;98483.91;5110132;28;20248;-58
2023/01/27 01:48:16;;;;;;;0.77;0.77;;;;;;;2.01;100.00;98477.16;5112256;28;20208;-61
2023/01/27 01:50:47;;;;;;;1.10;0.93;;;;;;;1.94;100.00;98482.53;5112170;28;20201;-61
2023/01/27 01:53:14;;;;;;;0.43;0.43;;;;;;;1.87;100.00;98471.13;5111710;28;20205;-58
2023/01/27 01:55:42;;;;;;;1.03;0.73;;;;;;;1.96;100.00;98476.53;5112110;28;20216;-59
2023/01/27 01:58:12;;;;;;;0.63;0.63;;;;;;;1.90;100.00;98469.28;5112248;28;20232;-59
2023/01/27 02:00:39;;;;;;;1.00;0.57;;;;;;;1.93;100.00;98471.66;5111930;28;20208;-58
2023/01/27 02:03:07;;;;;;;0.90;0.60;;;;;;;1.99;100.00;98465.50;5111789;28;20201;-61
2023/01/27 02:05:40;;;;;;;1.40;1.30;;;;;;;1.98;100.00;98464.69;5111844;28;20228;-61
2023/01/27 02:08:13;;;;;;;0.40;0.40;;;;;;;2.03;100.00;98467.78;5111053;28;20209;-58
2023/01/27 02:10:41;;;;;;;0.73;0.63;;;;;;;1.97;100.00;98468.09;5111685;27;20200;-59
2023/01/27 02:13:08;;;;;;;1.23;1.13;;;;;;;2.03;100.00;98465.28;5111721;28;20594;-59
2023/01/27 02:15:38;;;;;;;1.23;0.57;;;;;;;2.07;100.00;98465.16;5111476;28;20380;-58
2023/01/27 02:18:06;;;;;;;0.50;0.50;;;;;;;2.07;100.00;98467.69;5111229;28;20261;-61
2023/01/27 02:20:40;;;;;;;0.97;0.97;;;;;;;2.03;100.00;98457.72;5111381;28;20227;-61
2023/01/27 02:23:19;;;;;;;1.33;1.20;;;;;;;1.96;100.00;98456.38;5111095;28;20254;-62
2023/01/27 02:25:53;;;;;;;0.53;0.53;;;;;;;1.93;100.00;98441.41;5110959;28;20211;-58
2023/01/27 02:28:20;;;;;;;1.67;0.90;;;;;;;1.98;100.00;98431.94;5111229;28;20584;-58
2023/01/27 02:30:47;;;;;;;0.70;0.70;;;;;;;1.94;100.00;98417.81;5111020;28;20197;-59
2023/01/27 02:33:15;;;;;;;1.23;1.07;;;;;;;1.99;100.00;98405.81;5110754;28;20211;-59
2023/01/27 02:35:48;;;;;;;1.03;0.93;;;;;;;2.00;100.00;98401.59;5110913;28;20204;-58
2023/01/27 02:38:17;;;;;;;0.63;0.63;;;;;;;2.10;100.00;98392.69;5110793;28;20237;-62
2023/01/27 02:40:46;;;;;;;0.50;0.50;;;;;;;2.00;100.00;98397.34;5110337;28;20209;-58
2023/01/27 02:43:15;;;;;;;0.20;0.20;;;;;;;1.96;100.00;98400.91;5110741;28;20193;-61
2023/01/27 02:45:41;;;;;;;0.20;0.20;;;;;;;1.84;100.00;98406.56;5111292;28;20283;-61
2023/01/27 02:48:08;;;;;;;0.23;0.23;;;;;;;1.93;100.00;98420.44;5110658;28;20216;-58
2023/01/27 02:50:35;;;;;;;0.50;0.50;;;;;;;1.83;100.00;98416.69;5110797;28;20225;-58
2023/01/27 02:53:02;;;;;;;0.30;0.30;;;;;;;1.86;100.00;98414.84;5110758;28;20375;-61
2023/01/27 02:55:29;;;;;;;0.43;0.43;;;;;;;1.81;100.00;98406.69;5110445;28;20627;-58
2023/01/27 02:57:56;;;;;;;0.13;0.13;;;;;;;1.73;100.00;98409.56;5110286;28;20244;-61
2023/01/27 03:00:24;;;;;;;0.40;0.40;;;;;;;1.64;100.00;98411.72;5110583;28;20225;-61
2023/01/27 03:02:51;;;;;;;1.33;1.20;;;;;;;1.69;100.00;98417.38;5110224;28;20197;-61
2023/01/27 03:05:18;;;;;;;0.50;0.50;;;;;;;1.75;100.00;98422.94;5110505;28;20219;-61
2023/01/27 03:07:44;;;;;;;0.20;0.20;;;;;;;1.67;100.00;98429.22;5110506;28;20193;-61
2023/01/27 03:10:11;;;;;;;0.60;0.57;;;;;;;1.68;100.00;98438.41;5110957;28;20224;-58
2023/01/27 03:12:38;;;;;;;0.50;0.47;;;;;;;1.67;100.00;98439.28;5110636;28;20220;-61
2023/01/27 03:18:11;;;;;;;0.87;0.87;;;;;;;1.34;100.00;98424.84;5109967;28;20255;-61
2023/01/27 03:20:37;;;;;;;0.70;0.67;;;;;;;1.38;100.00;98418.78;5110871;28;20239;-58
2023/01/27 03:23:04;;;;;;;0.63;0.63;;;;;;;1.32;100.00;98408.97;5110413;28;20208;-59
2023/01/27 03:25:31;;;;;;;0.53;0.53;;;;;;;1.24;100.00;98406.78;5110061;28;20709;-61
2023/01/27 03:27:58;;;;;;;0.50;0.50;;;;;;;1.20;100.00;98419.63;5109866;28;20193;-61
2023/01/27 03:30:25;;;;;;;0.27;0.27;;;;;;;1.00;100.00;98416.28;5110065;28;20217;-58
2023/01/27 03:32:53;;;;;;;0.70;0.70;;;;;;;1.09;100.00;98398.22;5109913;28;20201;-61
2023/01/27 03:35:21;;;;;;;0.57;0.57;;;;;;;1.08;100.00;98401.66;5110258;28;20213;-61
2023/01/27 03:46:18;;;;;;;0.20;0.20;;;;;;;1.05;100.00;98442.06;5109883;28;20212;-61
2023/01/27 03:48:49;;;;;;;1.10;1.00;;;;;;;0.96;100.00;98447.50;5109959;28;20662;-59
2023/01/27 03:51:17;;;;;;;0.57;0.57;;;;;;;1.00;100.00;98433.88;5111041;28;20442;-58
2023/01/27 03:53:44;;;;;;;0.23;0.23;;;;;;;1.13;100.00;98437.50;5113984;28;20281;-61
2023/01/27 03:56:11;;;;;;;1.03;0.77;;;;;;;1.08;100.00;98436.88;5114155;28;20203;-58
2023/01/27 03:58:38;;;;;;;0.10;0.10;;;;;;;1.16;100.00;98435.72;5114124;28;20233;-61
2023/01/27 04:01:07;;;;;;;0.53;0.53;;;;;;;1.17;100.00;98438.19;5114322;28;20194;-61
2023/01/27 04:09:09;;;;;;;0.40;0.40;;;;;;;1.10;100.00;98440.13;5113966;28;20717;-58
2023/01/27 04:11:55;;;;;;;0.30;0.30;;;;;;;1.19;100.00;98443.13;5113796;28;20208;-61
2023/01/27 04:14:23;;;;;;;0.97;0.97;;;;;;;1.25;100.00;98442.84;5113724;28;20221;-58
2023/01/27 04:16:51;;;;;;;1.33;0.97;;;;;;;1.31;100.00;98447.66;5113679;28;20304;-61
2023/01/27 04:19:19;;;;;;;2.23;0.30;;;;;;;1.20;100.00;98430.50;5113683;28;20237;-58
2023/01/27 04:21:47;;;;;;;0.20;0.20;;;;;;;1.25;100.00;98422.72;5113552;28;20193;-59
2023/01/27 04:24:22;;;;;;;2.90;0.30;;;;;;;1.18;100.00;98426.41;5113826;28;20222;-58
2023/01/27 04:26:53;;;;;;;0.43;0.43;;;;;;;1.30;100.00;98425.84;5113216;28;20750;-61
2023/01/27 04:29:20;;;;;;;0.40;0.40;;;;;;;1.22;100.00;98420.34;5113437;27;20685;-61
2023/01/27 04:31:47;;;;;;;0.10;0.10;;;;;;;1.23;100.00;98414.44;5113334;28;20201;-62
2023/01/27 04:34:14;;;;;;;0.17;0.17;;;;;;;1.34;100.00;98407.22;5113238;28;20217;-61
2023/01/27 04:36:41;;;;;;;0.70;0.70;;;;;;;1.29;100.00;98394.81;5113389;28;20205;-62
2023/01/27 04:39:10;;;;;;;0.50;0.50;;;;;;;1.30;100.00;98395.63;5113578;28;20262;-61
2023/01/27 04:41:37;;;;;;;0.37;0.37;;;;;;;1.26;100.00;98402.53;5113147;28;20204;-59
2023/01/27 04:44:06;;;;;;;0.53;0.53;;;;;;;1.33;100.00;98400.53;5113445;28;20724;-59
2023/01/27 04:46:34;;;;;;;0.20;0.20;;;;;;;1.39;100.00;98409.50;5113149;28;20606;-62
2023/01/27 04:49:01;;;;;;;1.53;1.43;;;;;;;1.39;100.00;98404.47;5113123;28;20227;-59
2023/01/27 04:51:28;;;;;;;0.50;0.50;;;;;;;1.34;100.00;98418.09;5112978;28;20217;-59
2023/01/27 04:53:55;;;;;;;0.20;0.20;;;;;;;1.53;100.00;98410.50;5112966;28;20217;-59
2023/01/27 04:56:26;;;;;;;0.10;0.10;;;;;;;1.44;100.00;98423.53;5112999;28;20213;-62
2023/01/27 04:58:53;;;;;;;0.20;0.20;;;;;;;1.45;100.00;98425.16;5112642;28;20236;-61
2023/01/27 05:01:20;;;;;;;0.30;0.30;;;;;;;1.54;100.00;98433.97;5113014;28;20227;-59
2023/01/27 05:03:47;;;;;;;0.20;0.20;;;;;;;1.52;100.00;98431.56;5112106;28;20696;-59
2023/01/27 05:06:14;;;;;;;0.30;0.30;;;;;;;1.47;100.00;98443.53;5112818;28;20202;-59
2023/01/27 05:08:41;;;;;;;0.63;0.63;;;;;;;1.43;100.00;98434.50;5112537;28;20213;-62
2023/01/27 05:11:09;;;;;;;0.37;0.37;;;;;;;1.48;100.00;98429.22;5113010;28;20201;-58
2023/01/27 05:13:37;;;;;;;0.63;0.63;;;;;;;1.53;100.00;98428.13;5112663;28;20419;-62
2023/01/27 05:16:07;;;;;;;0.17;0.17;;;;;;;1.57;100.00;98432.16;5112882;28;20665;-59
2023/01/27 05:18:34;;;;;;;0.63;0.43;;;;;;;1.62;100.00;98421.03;5112279;28;20767;-62
2023/01/27 05:21:01;;;;;;;0.20;0.20;;;;;;;1.64;100.00;98421.78;5112571;28;20204;-59
2023/01/27 05:23:37;;;;;;;0.33;0.20;;;;;;;1.74;100.00;98423.78;5112145;28;20205;-62
2023/01/27 05:26:15;;;;;;;0.30;0.30;;;;;;;1.67;100.00;98436.78;5112228;27;20212;-62
2023/01/27 05:28:45;;;;;;;0.17;0.17;;;;;;;1.61;100.00;98437.06;5112346;28;20212;-59
2023/01/27 05:31:13;;;;;;;0.20;0.20;;;;;;;1.65;100.00;98436.00;5112276;28;20221;-59
2023/01/27 05:33:42;;;;;;;0.10;0.10;;;;;;;1.59;100.00;98430.38;5112110;28;20697;-59
2023/01/27 05:36:14;;;;;;;0.10;0.10;;;;;;;1.65;100.00;98430.97;5112231;28;20705;-62
2023/01/27 05:38:42;;;;;;;0.60;0.60;;;;;;;1.74;100.00;98430.53;5112207;28;20225;-59
2023/01/27 05:41:11;;;;;;;0.20;0.20;;;;;;;1.78;100.00;98416.94;5111982;28;20205;-62
2023/01/27 05:43:40;;;;;;;0.20;0.20;;;;;;;1.86;100.00;98429.97;5112202;28;20700;-62
2023/01/27 05:46:11;;;;;;;1.07;0.67;;;;;;;1.89;100.00;98434.88;5112054;28;20213;-62
2023/01/27 05:48:40;;;;;;;0.87;0.67;;;;;;;1.90;100.00;98426.44;5111765;28;20209;-62
2023/01/27 05:51:07;;;;;;;0.10;0.10;;;;;;;1.83;100.00;98430.09;5111825;28;20201;-59
2023/01/27 05:53:35;;;;;;;0.53;0.53;;;;;;;1.87;100.00;98434.13;5111650;27;20213;-59
2023/01/27 05:56:02;;;;;;;0.30;0.20;;;;;;;1.94;100.00;98432.13;5111750;28;20437;-61
2023/01/27 05:58:30;;;;;;;0.57;0.50;;;;;;;1.77;100.00;98430.41;5111493;28;20225;-59
2023/01/27 06:00:57;;;;;;;0.20;0.20;;;;;;;1.94;100.00;98432.94;5111745;28;20204;-59
2023/01/27 06:03:25;;;;;;;0.10;0.10;;;;;;;1.94;100.00;98432.94;5111558;28;20203;-61
2023/01/27 06:05:54;;;;;;;0.20;0.20;;;;;;;2.00;100.00;98436.88;5111341;28;20204;-61
2023/01/27 06:08:22;;;;;;;0.20;0.20;;;;;;;1.91;100.00;98443.16;5111303;28;20204;-61
2023/01/27 06:10:49;;;;;;;0.40;0.40;;;;;;;1.91;100.00;98434.78;5111079;28;20205;-59
2023/01/27 06:13:15;;;;;;;0.37;0.37;;;;;;;1.88;100.00;98433.22;5111035;28;20637;-59
2023/01/27 06:15:44;;;;;;;0.30;0.27;;;;;;;1.79;100.00;98441.22;5110147;28;20197;-59
2023/01/27 06:18:11;;;;;;;2.03;0.47;;;;;;;1.94;100.00;98443.03;5111010;28;20228;-62
2023/01/27 06:20:40;;;;;;;0.27;0.27;;;;;;;1.70;100.00;98441.66;5111467;28;20216;-61
2023/01/27 06:23:07;;;;;;;0.27;0.27;;;;;;;1.89;100.00;98436.56;5110829;28;20607;-61
2023/01/27 06:25:38;;;;;;;0.77;0.57;;;;;;;1.75;100.00;98442.28;5110860;28;20376;-62
2023/01/27 06:28:05;;;;;;;0.40;0.40;;;;;;;1.76;100.00;98443.91;5110745;28;20258;-59
2023/01/27 06:30:33;;;;;;;1.17;1.07;;;;;;;1.69;100.00;98440.03;5110945;28;20235;-59
2023/01/27 06:33:00;;;;;;;0.77;0.77;;;;;;;1.86;100.00;98440.03;5110889;28;20193;-59
2023/01/27 06:35:27;;;;;;;0.80;0.77;;;;;;;1.71;100.00;98440.78;5110617;28;20243;-59
2023/01/27 06:37:57;;;;;;;0.43;0.43;;;;;;;1.72;100.00;98447.47;5110424;28;20207;-59
2023/01/27 06:40:24;;;;;;;0.50;0.50;;;;;;;1.75;100.00;98452.34;5110718;27;20213;-62
2023/01/27 06:42:51;;;;;;;0.63;0.40;;;;;;;1.72;100.00;98452.50;5110328;28;20197;-58
2023/01/27 06:45:18;;;;;;;2.77;0.77;;;;;;;1.77;100.00;98455.59;5110436;28;20228;-57
2023/01/27 06:48:01;;;;;;;0.73;0.73;;;;;;;1.88;100.00;98453.41;5086665;27;20558;-58
2023/01/27 06:50:29;;;;;;;0.40;0.40;;;;;;;1.85;100.00;98445.16;5086561;28;20243;-58
2023/01/27 06:53:00;;;;;;;0.70;0.70;;;;;;;1.98;100.00;98447.06;5086653;28;20213;-59
2023/01/27 06:55:27;;;;;;;0.40;0.40;;;;;;;2.00;100.00;98452.81;5086685;28;20455;-59
2023/01/27 06:57:54;;;;;;;1.00;0.70;;;;;;;1.98;100.00;98454.59;5086686;28;20202;-59
2023/01/27 07:00:22;;;;;;;0.70;0.53;;;;;;;1.84;100.00;98459.47;5086578;28;20312;-59
2023/01/27 07:02:49;;;;;;;0.43;0.43;;;;;;;1.86;100.00;98472.00;5086424;28;20206;-61
2023/01/27 07:05:17;;;;;;;0.83;0.73;;;;;;;1.91;100.00;98475.13;5086558;28;20226;-58
2023/01/27 07:07:44;;;;;;;0.23;0.23;;;;;;;1.87;100.00;98474.47;5086753;28;20229;-61
2023/01/27 07:10:11;;;;;;;0.40;0.40;;;;;;;2.08;100.00;98481.91;5086472;28;20218;-61
2023/01/27 07:12:38;;;;;;;0.83;0.83;;;;;;;1.90;100.00;98486.91;5086752;28;20205;-61
2023/01/27 07:15:06;;;;;;;0.10;0.10;;;;;;;1.97;100.00;98493.28;5086356;28;20222;-61
2023/01/27 07:17:34;;;;;;;4.87;1.30;;;;;;;2.08;100.00;98494.50;5086881;28;20210;-59
2023/01/27 07:20:01;;;;;;;2.33;0.47;;;;;;;2.08;100.00;98495.31;5086103;28;20244;-61
2023/01/27 07:22:29;;;;;;;0.67;0.67;;;;;;;1.95;100.00;98495.09;5086365;28;20205;-61
2023/01/27 07:24:56;;;;;;;0.30;0.30;;;;;;;1.88;100.00;98498.78;5086165;28;20213;-58
2023/01/27 07:27:23;;;;;;;0.60;0.60;;;;;;;1.87;100.00;98497.16;5086017;28;20238;-58
2023/01/27 07:29:50;;;;;;;0.87;0.50;;;;;;;1.89;100.00;98500.41;5086147;28;20224;-61
2023/01/27 07:32:17;;;;;;;0.20;0.20;;;;;;;1.48;100.00;98505.59;5086366;28;20198;-61
2023/01/27 07:34:44;;;;;;;0.87;0.57;;;;;;;1.70;100.00;98509.69;5086071;28;20223;-59
2023/01/27 07:37:11;;;;;;;0.67;0.67;;;;;;;1.52;100.00;98504.59;5086433;28;20205;-61
2023/01/27 07:39:39;;;;;;;0.63;0.63;;;;;;;1.67;100.00;98508.13;5086813;28;20241;-59
2023/01/27 07:42:06;;;;;;;0.40;0.40;;;;;;;1.62;100.00;98506.72;5086191;28;20209;-59
2023/01/27 07:44:33;;;;;;;0.93;0.93;;;;;;;1.48;100.00;98513.16;5086081;28;20222;-61
2023/01/27 07:47:00;;;;;;;0.73;0.73;;;;;;;1.37;100.00;98522.94;5086022;28;20229;-61
2023/01/27 07:49:27;;;;;;;0.50;0.50;;;;;;;1.36;100.00;98511.19;5085761;28;20229;-62
2023/01/27 07:51:54;;;;;;;0.50;0.43;;;;;;;1.38;100.00;98504.41;5086103;28;20632;-61
2023/01/27 07:54:21;;;;;;;1.07;0.70;;;;;;;1.30;100.00;98501.41;5085978;28;20229;-63
2023/01/27 07:56:49;;;;;;;0.70;0.70;;;;;;;1.42;100.00;98505.88;5086177;28;20209;-61
2023/01/27 07:59:16;;;;;;;0.60;0.60;;;;;;;1.37;100.00;98500.25;5072005;28;20222;-63
2023/01/27 08:01:43;;;;;;;3.70;1.00;;;;;;;1.59;100.00;98498.41;5072464;28;20199;-61
2023/01/27 08:04:10;;;;;;;0.70;0.70;;;;;;;1.50;100.00;98508.88;5072358;28;20218;-61
2023/01/27 08:06:38;;;;;;;0.30;0.30;;;;;;;1.36;100.00;98506.97;5072234;28;20245;-58
2023/01/27 08:09:05;;;;;;;3.20;1.50;;;;;;;1.12;100.00;98513.91;5071988;28;20222;-58
2023/01/27 08:11:32;;;;;;;1.80;0.60;;;;;;;1.38;100.00;98508.63;5072116;28;20207;-61
2023/01/27 08:14:00;;;;;;;1.00;0.67;;;;;;;1.38;100.00;98514.47;5071940;28;20753;-61
2023/01/27 08:16:27;;;;;;;0.43;0.43;;;;;;;1.38;100.00;98508.63;5072031;28;20206;-58
2023/01/27 08:18:54;;;;;;;1.13;0.97;;;;;;;1.32;100.00;98519.78;5072049;28;20225;-62
2023/01/27 08:21:21;;;;;;;0.40;0.40;;;;;;;1.27;100.00;98522.50;5072004;28;20585;-58
2023/01/27 08:23:48;;;;;;;0.40;0.40;;;;;;;1.29;100.00;98505.63;5071668;28;20225;-58
2023/01/27 08:26:15;;;;;;;0.40;0.40;;;;;;;1.37;100.00;98497.75;5071849;28;20577;-59
2023/01/27 08:28:42;;;;;;;1.60;1.13;;;;;;;1.25;100.00;98493.22;5071579;28;20226;-59
2023/01/27 08:31:12;;;;;;;0.70;0.70;;;;;;;1.05;100.00;98492.41;5072046;28;20195;-59
2023/01/27 08:33:40;;;;;;;0.50;0.50;;;;;;;1.35;100.00;98489.44;5071339;28;20215;-62
2023/01/27 08:36:09;;;;;;;0.77;0.67;;;;;;;1.33;100.00;98481.13;5071777;28;20663;-62
2023/01/27 08:38:37;;;;;;;1.90;1.03;;;;;;;1.34;100.00;98473.50;5071602;28;20219;-62
2023/01/27 08:41:05;;;;;;;0.63;0.63;;;;;;;1.12;100.00;98473.63;5071963;28;20198;-61
2023/01/27 08:43:33;;;;;;;0.30;0.30;;;;;;;1.24;100.00;98463.91;5071723;28;20753;-64
2023/01/27 08:46:00;;;;;;;1.20;1.10;;;;;;;1.34;100.00;98457.59;5071092;28;20225;-59
2023/01/27 08:48:30;;;;;;;1.03;0.93;;;;;;;1.27;100.00;98458.72;5071409;28;20202;-64
2023/01/27 08:50:58;;;;;;;1.27;1.00;;;;;;;1.26;100.00;98464.66;5071210;28;20614;-64
2023/01/27 08:53:26;;;;;;;1.80;1.33;;;;;;;1.19;100.00;98464.09;5071149;28;20249;-60
2023/01/27 08:55:54;;;;;;;0.60;0.60;;;;;;;1.12;100.00;98472.81;5071177;28;20234;-64
2023/01/27 08:58:21;;;;;;;1.30;1.03;;;;;;;0.98;100.00;98465.84;5071222;28;20283;-63
2023/01/27 09:00:48;;;;;;;0.50;0.50;;;;;;;0.98;100.00;98465.03;5071064;28;20210;-60
2023/01/27 09:03:15;;;;;;;10.60;0.97;;;;;;;0.97;100.00;98455.88;5071084;28;20667;-60
2023/01/27 09:05:43;;;;;;;0.77;0.77;;;;;;;0.92;100.00;98456.06;5070926;28;20194;-61
2023/01/27 09:08:11;;;;;;;1.63;0.87;;;;;;;0.93;100.00;98447.59;5071222;28;20237;-61
2023/01/27 09:10:38;;;;;;;1.27;0.87;;;;;;;0.93;100.00;98446.78;5069924;28;20210;-63
2023/01/27 09:13:06;;;;;;;1.50;0.80;;;;;;;0.90;100.00;98442.72;5071218;28;20702;-63
2023/01/27 09:15:34;;;;;;;0.40;0.40;;;;;;;0.93;100.00;98435.03;5070838;28;20226;-64
2023/01/27 09:18:00;;;;;;;0.33;0.33;;;;;;;0.93;100.00;98434.22;5070736;28;20710;-63
2023/01/27 09:20:27;;;;;;;0.50;0.50;;;;;;;0.98;100.00;98434.84;5070440;28;20220;-60
2023/01/27 09:22:56;;;;;;;0.67;0.67;;;;;;;1.03;100.00;98436.25;5070799;28;20204;-60
2023/01/27 09:25:23;;;;;;;0.47;0.47;;;;;;;0.94;100.00;98431.66;5070629;28;20210;-63
2023/01/27 09:27:54;;;;;;;0.37;0.37;;;;;;;0.93;100.00;98435.03;5070700;28;20253;-61
2023/01/27 09:30:22;;;;;;;0.80;0.80;;;;;;;0.90;100.00;98425.09;5070408;28;20272;-63
2023/01/27 09:32:49;;;;;;;0.30;0.30;;;;;;;0.76;100.00;98434.97;5070565;28;20199;-60
2023/01/27 09:35:16;;;;;;;0.63;0.63;;;;;;;0.74;100.00;98427.47;5070458;28;20226;-60
2023/01/27 09:37:47;;;;;;;2.27;1.87;;;;;;;0.72;100.00;98430.94;5070703;28;20198;-63
2023/01/27 09:40:29;;;;;;;0.93;0.93;;;;;;;0.73;100.00;98433.41;5070420;28;20223;-63
2023/01/27 09:43:11;;;;;;;0.27;0.27;;;;;;;0.98;100.00;98430.59;5070332;28;20206;-64
2023/01/27 09:46:04;;;;;;;1.13;1.03;;;;;;;0.79;100.00;98434.84;5069936;28;20231;-61
2023/01/27 09:48:43;;;;;;;0.87;0.73;;;;;;;0.71;100.00;98431.81;5069949;28;20418;-61
2023/01/27 09:51:20;;;;;;;0.47;0.47;;;;;;;0.73;100.00;98419.97;5070184;28;20207;-63
2023/01/27 09:54:19;;;;;;;1.13;1.13;;;;;;;0.72;100.00;98419.16;5069922;28;20218;-63
2023/01/27 09:56:57;;;;;;;0.17;0.17;;;;;;;0.61;100.00;98417.13;5070220;28;20209;-60
2023/01/27 09:59:48;;;;;;;0.10;0.10;;;;;;;0.72;100.00;98413.31;5070062;28;20219;-60
2023/01/27 10:02:27;;;;;;;0.57;0.47;;;;;;;0.71;100.00;98415.03;5070287;28;20206;-60
2023/01/27 10:05:09;;;;;;;0.33;0.33;;;;;;;0.88;100.00;98424.38;5070195;28;20218;-62
2023/01/27 10:07:55;;;;;;;8.67;0.93;;;;;;;0.82;100.00;98417.09;5070360;28;20233;-60
2023/01/27 10:10:38;;;;;;;0.60;0.60;;;;;;;0.83;100.00;98418.72;5069888;28;20218;-63
2023/01/27 10:13:24;;;;;;;0.60;0.60;;;;;;;0.85;100.00;98419.47;5070072;28;20213;-60
2023/01/27 10:16:12;;;;;;;0.10;0.10;;;;;;;1.04;100.00;98430.34;5069918;28;20200;-62
2023/01/27 10:18:54;;;;;;;1.03;0.67;;;;;;;1.01;100.00;98420.41;5068720;28;20222;-60
2023/01/27 10:21:32;;;;;;;0.30;0.30;;;;;;;0.87;100.00;98428.59;5069874;28;20206;-60
2023/01/27 10:24:08;;;;;;;0.50;0.50;;;;;;;0.82;100.00;98429.66;5070075;28;20210;-60
2023/01/27 10:26:39;;;;;;;0.10;0.10;;;;;;;0.70;100.00;98432.69;5070224;28;20635;-60
2023/01/27 10:29:10;;;;;;;1.23;1.13;;;;;;;0.68;100.00;98435.28;5069569;28;20233;-63
2023/01/27 10:31:41;;;;;;;0.50;0.50;;;;;;;0.47;100.00;98424.44;5070183;28;20198;-60
2023/01/27 10:34:19;;;;;;;0.10;0.10;;;;;;;0.42;100.00;98421.28;5069575;28;20221;-63
2023/01/27 10:36:56;;;;;;;0.70;0.70;;;;;;;0.74;100.00;98419.09;5069798;28;20224;-63
2023/01/27 10:39:33;;;;;;;0.40;0.40;;;;;;;0.80;100.00;98421.34;5069584;28;20210;-63
2023/01/27 10:42:08;;;;;;;0.20;0.20;;;;;;;0.68;100.00;98430.25;5069887;28;20781;-63
2023/01/27 10:44:49;;;;;;;0.30;0.30;;;;;;;0.64;100.00;98421.19;5069454;28;20710;-60
2023/01/27 10:47:28;;;;;;;0.37;0.37;;;;;;;0.59;100.00;98418.06;5069758;28;20230;-63
2023/01/27 10:50:00;;;;;;;0.80;0.53;;;;;;;0.55;100.00;98421.56;5069433;28;20627;-60
2023/01/27 10:52:34;;;;;;;0.30;0.30;;;;;;;0.44;100.00;98419.53;5069452;28;20198;-60
2023/01/27 10:55:07;;;;;;;0.87;0.87;;;;;;;0.41;100.00;98409.59;5069708;28;20228;-62
2023/01/27 10:57:39;;;;;;;0.30;0.30;;;;;;;0.45;100.00;98411.09;5069926;28;20206;-61
2023/01/27 11:00:16;;;;;;;0.57;0.57;;;;;;;0.47;100.00;98405.97;5069506;28;20226;-61
2023/01/27 11:02:50;;;;;;;0.43;0.43;;;;;;;0.54;100.00;98413.22;5069523;28;20205;-60
2023/01/27 11:05:22;;;;;;;0.23;0.23;;;;;;;0.50;100.00;98414.25;5069498;28;20610;-64
2023/01/27 11:07:54;;;;;;;0.30;0.30;;;;;;;0.50;100.00;98414.25;5069309;28;20226;-60
2023/01/27 11:10:23;;;;;;;0.30;0.30;;;;;;;0.61;100.00;98416.28;5069603;28;20214;-62
2023/01/27 11:12:54;;;;;;;1.10;0.73;;;;;;;0.39;100.00;98412.16;5069579;28;20206;-61
2023/01/27 11:15:27;;;;;;;0.30;0.30;;;;;;;0.33;100.00;98409.91;5069309;28;20219;-64
2023/01/27 11:17:59;;;;;;;0.40;0.40;;;;;;;0.40;100.00;98412.97;5069357;28;20213;-64
2023/01/27 11:20:30;;;;;;;0.43;0.40;;;;;;;0.30;100.00;98406.72;5069455;28;20641;-65
2023/01/27 11:23:03;;;;;;;0.43;0.43;;;;;;;0.27;100.00;98401.81;5069272;28;20218;-61
2023/01/27 11:25:43;;;;;;;1.30;0.43;;;;;;;0.27;100.00;98397.59;5069052;28;20214;-63
2023/01/27 11:28:23;;;;;;;0.30;0.30;;;;;;;0.27;100.00;98401.81;5069056;28;20237;-64
2023/01/27 11:31:03;;;;;;;0.23;0.23;;;;;;;0.39;100.00;98397.09;5069062;28;20297;-61
2023/01/27 11:33:43;;;;;;;0.40;0.40;;;;;;;0.30;100.00;98396.66;5070892;28;20285;-61
2023/01/27 11:36:10;;;;;;;0.20;0.20;;;;;;;0.34;100.00;98398.16;5073042;28;20248;-64
2023/01/27 11:38:37;;;;;;;0.20;0.20;;;;;;;0.32;100.00;98394.88;5072948;28;20750;-64
2023/01/27 11:41:04;;;;;;;0.10;0.10;;;;;;;0.38;100.00;98394.66;5072916;28;20205;-61
2023/01/27 11:43:33;;;;;;;1.97;1.07;;;;;;;0.50;100.00;98394.13;5072713;28;20416;-64
2023/01/27 11:46:06;;;;;;;1.03;0.93;;;;;;;0.33;100.00;98391.50;5072455;28;20678;-64
2023/01/27 11:48:39;;;;;;;0.70;0.70;;;;;;;0.30;100.00;98399.16;5072644;28;20245;-65
2023/01/27 11:51:15;;;;;;;1.07;0.93;;;;;;;0.26;100.00;98393.44;5072731;28;20208;-61
2023/01/27 11:53:45;;;;;;;0.93;0.67;;;;;;;0.26;100.00;98395.13;5072706;28;20222;-64
2023/01/27 11:56:17;;;;;;;0.10;0.10;;;;;;;0.35;100.00;98393.06;5073097;28;20569;-62
2023/01/27 11:58:50;;;;;;;0.57;0.57;;;;;;;0.31;100.00;98390.75;5072441;28;20230;-65
2023/01/27 12:01:22;;;;;;;0.37;0.37;;;;;;;0.18;100.00;98387.94;5072793;28;20252;-61
2023/01/27 12:03:57;;;;;;;0.10;0.10;;;;;;;0.33;100.00;98391.50;5072513;28;20618;-61
2023/01/27 12:06:33;;;;;;;0.57;0.57;;;;;;;0.16;100.00;98384.66;5072793;28;20196;-65
2023/01/27 12:08:59;;;;;;;0.50;0.50;;;;;;;0.27;100.00;98396.78;5072378;28;20321;-61
2023/01/27 12:11:28;;;;;;;0.50;0.50;;;;;;;0.14;100.00;98391.44;5072369;28;20194;-61